Time,TemperatureF,DewpointF,PressureIn,WindDirection,WindDirectionDegrees,WindSpeedMPH,WindSpeedGustMPH,Humidity,HourlyPrecipIn,Conditions,Clouds,dailyrainin,SoftwareType,DateUTC
2013-03-19 00:00:00,42.3,31.7,29.86,SSW,208,2.0,2.0,66,0.00,,,0.82,Wunderground v.1.13,2013-03-19 04:00:00,
2013-03-19 00:05:00,42.3,31.4,29.86,SE,130,2.0,2.0,65,0.00,,,0.82,Wunderground v.1.13,2013-03-19 04:05:00,
2013-03-19 00:10:00,42.2,31.6,29.86,SE,127,2.0,2.0,66,0.00,,,0.82,Wunderground v.1.13,2013-03-19 04:10:00,
2013-03-19 00:20:00,41.9,32.1,29.86,SSE,150,1.0,1.0,68,0.00,,,0.82,Wunderground v.1.13,2013-03-19 04:20:00,
2013-03-19 00:25:00,41.8,31.6,29.86,ESE,112,2.0,19.0,67,0.00,,,0.82,Wunderground v.1.13,2013-03-19 04:25:00,
2013-03-19 00:30:00,41.6,31.8,29.86,SE,126,2.0,19.0,68,0.00,,,0.82,Wunderground v.1.13,2013-03-19 04:30:00,
2013-03-19 00:35:00,41.5,31.7,29.86,SE,136,2.0,19.0,68,0.00,,,0.82,Wunderground v.1.13,2013-03-19 04:35:00,
2013-03-19 00:40:00,41.5,32.1,29.86,ESE,117,3.0,3.0,69,0.00,,,0.82,Wunderground v.1.13,2013-03-19 04:40:00,
2013-03-19 00:45:00,41.3,31.9,29.85,East,97,2.0,2.0,69,0.00,,,0.82,Wunderground v.1.13,2013-03-19 04:45:00,
2013-03-19 00:55:00,41.1,31.7,29.85,ESE,123,2.0,19.0,69,0.00,,,0.82,Wunderground v.1.13,2013-03-19 04:55:00,
2013-03-19 01:00:00,41.1,31.7,29.86,ESE,119,2.0,19.0,69,0.00,,,0.82,Wunderground v.1.13,2013-03-19 05:00:00,
2013-03-19 01:05:00,40.9,31.5,29.86,East,93,3.0,19.0,69,0.00,,,0.00,Wunderground v.1.13,2013-03-19 05:05:00,
2013-03-19 01:10:00,40.9,31.5,29.86,SE,130,3.0,3.0,69,0.00,,,0.00,Wunderground v.1.13,2013-03-19 05:10:00,
2013-03-19 01:15:00,40.8,31.8,29.85,East,90,2.0,19.0,70,0.00,,,0.00,Wunderground v.1.13,2013-03-19 05:15:00,
2013-03-19 01:20:00,40.8,31.8,29.85,ESE,107,2.0,19.0,70,0.00,,,0.00,Wunderground v.1.13,2013-03-19 05:20:00,
2013-03-19 01:25:00,40.6,31.9,29.85,SE,124,2.0,19.0,71,0.00,,,0.00,Wunderground v.1.13,2013-03-19 05:25:00,
2013-03-19 01:30:00,40.6,31.9,29.86,ESE,117,2.0,2.0,71,0.00,,,0.00,Wunderground v.1.13,2013-03-19 05:30:00,
2013-03-19 01:35:00,40.5,31.8,29.86,ESE,102,2.0,2.0,71,0.00,,,0.00,Wunderground v.1.13,2013-03-19 05:35:00,
2013-03-19 01:40:00,40.5,32.2,29.86,East,100,2.0,2.0,72,0.00,,,0.00,Wunderground v.1.13,2013-03-19 05:40:00,
2013-03-19 01:45:00,40.5,32.2,29.86,ESE,112,2.0,2.0,72,0.00,,,0.00,Wunderground v.1.13,2013-03-19 05:45:00,
2013-03-19 01:50:00,40.3,32.0,29.86,ESE,106,2.0,19.0,72,0.00,,,0.00,Wunderground v.1.13,2013-03-19 05:50:00,
2013-03-19 02:00:00,40.1,32.1,29.87,ESE,109,3.0,3.0,73,0.00,,,0.00,Wunderground v.1.13,2013-03-19 06:00:00,
2013-03-19 02:05:00,40.1,32.5,29.87,East,97,2.0,19.0,74,0.00,,,0.00,Wunderground v.1.13,2013-03-19 06:05:00,
2013-03-19 02:10:00,39.9,32.3,29.87,SE,124,1.0,19.0,74,0.00,,,0.00,Wunderground v.1.13,2013-03-19 06:10:00,
2013-03-19 02:15:00,39.9,32.6,29.87,ESE,113,2.0,19.0,75,0.00,,,0.00,Wunderground v.1.13,2013-03-19 06:15:00,
2013-03-19 02:20:00,39.8,32.5,29.87,SE,126,3.0,3.0,75,0.00,,,0.00,Wunderground v.1.13,2013-03-19 06:20:00,
2013-03-19 02:25:00,39.8,32.5,29.87,East,90,4.0,19.0,75,0.00,,,0.00,Wunderground v.1.13,2013-03-19 06:25:00,
2013-03-19 02:30:00,39.8,32.5,29.88,ESE,123,4.0,4.0,75,0.00,,,0.00,Wunderground v.1.13,2013-03-19 06:30:00,
2013-03-19 02:35:00,39.8,32.5,29.88,SE,126,3.0,19.0,75,0.00,,,0.00,Wunderground v.1.13,2013-03-19 06:35:00,
2013-03-19 02:40:00,39.8,32.8,29.88,ESE,109,2.0,19.0,76,0.00,,,0.00,Wunderground v.1.13,2013-03-19 06:40:00,
2013-03-19 02:45:00,39.6,32.7,29.88,SE,124,3.0,19.0,76,0.00,,,0.00,Wunderground v.1.13,2013-03-19 06:45:00,
2013-03-19 02:50:00,39.6,32.7,29.88,ESE,116,3.0,19.0,76,0.00,,,0.00,Wunderground v.1.13,2013-03-19 06:50:00,
2013-03-19 03:00:00,39.5,32.9,29.89,ESE,112,3.0,3.0,77,0.00,,,0.00,Wunderground v.1.13,2013-03-19 07:00:00,
2013-03-19 03:05:00,39.5,32.9,29.89,ESE,120,3.0,19.0,77,0.00,,,0.00,Wunderground v.1.13,2013-03-19 07:05:00,
2013-03-19 03:10:00,39.5,32.9,29.89,ESE,119,4.0,4.0,77,0.00,,,0.00,Wunderground v.1.13,2013-03-19 07:10:00,
2013-03-19 03:15:00,39.5,32.9,29.89,SE,143,5.0,19.0,77,0.00,,,0.00,Wunderground v.1.13,2013-03-19 07:15:00,
2013-03-19 03:20:00,39.5,32.9,29.89,ENE,73,5.0,19.0,77,0.00,,,0.00,Wunderground v.1.13,2013-03-19 07:20:00,
2013-03-19 03:25:00,39.6,33.0,29.89,SW,229,4.0,4.0,77,0.00,,,0.00,Wunderground v.1.13,2013-03-19 07:25:00,
2013-03-19 03:35:00,39.5,32.6,29.89,ESE,116,5.0,5.0,76,0.00,,,0.00,Wunderground v.1.13,2013-03-19 07:35:00,
2013-03-19 03:40:00,39.5,32.9,29.89,SE,141,3.0,19.0,77,0.00,,,0.00,Wunderground v.1.13,2013-03-19 07:40:00,
2013-03-19 03:45:00,39.5,32.9,29.89,ESE,114,4.0,19.0,77,0.00,,,0.00,Wunderground v.1.13,2013-03-19 07:45:00,
2013-03-19 03:50:00,39.5,32.9,29.89,SE,138,5.0,5.0,77,0.00,,,0.00,Wunderground v.1.13,2013-03-19 07:50:00,
2013-03-19 03:55:00,39.5,32.9,29.89,East,92,4.0,4.0,77,0.00,,,0.00,Wunderground v.1.13,2013-03-19 07:55:00,
2013-03-19 04:05:00,39.2,32.6,29.89,ESE,121,3.0,19.0,77,0.00,,,0.00,Wunderground v.1.13,2013-03-19 08:05:00,
2013-03-19 04:10:00,39.2,32.6,29.89,ESE,117,3.0,19.0,77,0.00,,,0.00,Wunderground v.1.13,2013-03-19 08:10:00,
2013-03-19 04:15:00,39.1,32.5,29.89,ESE,119,4.0,4.0,77,0.00,,,0.00,Wunderground v.1.13,2013-03-19 08:15:00,
2013-03-19 04:20:00,39.1,32.2,29.89,ESE,120,4.0,4.0,76,0.00,,,0.00,Wunderground v.1.13,2013-03-19 08:20:00,
2013-03-19 04:25:00,38.9,31.6,29.89,SE,143,4.0,19.0,75,0.00,,,0.00,Wunderground v.1.13,2013-03-19 08:25:00,
2013-03-19 04:30:00,38.9,30.6,29.89,SE,134,5.0,5.0,72,0.00,,,0.00,Wunderground v.1.13,2013-03-19 08:30:00,
2013-03-19 04:40:00,38.9,30.6,29.89,SSE,165,2.0,2.0,72,0.00,,,0.00,Wunderground v.1.13,2013-03-19 08:40:00,
2013-03-19 04:45:00,38.9,30.3,29.90,SE,145,3.0,19.0,71,0.00,,,0.00,Wunderground v.1.13,2013-03-19 08:45:00,
2013-03-19 04:50:00,38.9,29.9,29.90,SE,140,3.0,19.0,70,0.00,,,0.00,Wunderground v.1.13,2013-03-19 08:50:00,
2013-03-19 04:55:00,38.8,29.1,29.90,SSE,160,5.0,5.0,68,0.00,,,0.00,Wunderground v.1.13,2013-03-19 08:55:00,
2013-03-19 05:00:00,38.8,29.1,29.90,SSE,148,5.0,5.0,68,0.00,,,0.00,Wunderground v.1.13,2013-03-19 09:00:00,
2013-03-19 05:05:00,38.8,29.1,29.90,SE,134,5.0,5.0,68,0.00,,,0.00,Wunderground v.1.13,2013-03-19 09:05:00,
2013-03-19 05:10:00,38.6,28.6,29.90,ESE,123,5.0,19.0,67,0.00,,,0.00,Wunderground v.1.13,2013-03-19 09:10:00,
2013-03-19 05:15:00,38.6,28.6,29.91,SE,134,5.0,19.0,67,0.00,,,0.00,Wunderground v.1.13,2013-03-19 09:15:00,
2013-03-19 05:20:00,38.5,28.1,29.91,SSE,168,5.0,19.0,66,0.00,,,0.00,Wunderground v.1.13,2013-03-19 09:20:00,
2013-03-19 05:25:00,38.3,27.6,29.91,SE,134,5.0,19.0,65,0.00,,,0.00,Wunderground v.1.13,2013-03-19 09:25:00,
2013-03-19 05:30:00,38.3,27.6,29.92,SSE,152,5.0,5.0,65,0.00,,,0.00,Wunderground v.1.13,2013-03-19 09:30:00,
2013-03-19 05:40:00,37.9,26.0,29.92,SE,137,3.0,19.0,62,0.00,,,0.00,Wunderground v.1.13,2013-03-19 09:40:00,
2013-03-19 05:45:00,37.5,22.8,29.92,SE,131,5.0,19.0,55,0.00,,,0.00,Wunderground v.1.13,2013-03-19 09:45:00,
2013-03-19 05:50:00,37.0,20.5,29.92,ESE,107,7.0,19.0,51,0.00,,,0.00,Wunderground v.1.13,2013-03-19 09:50:00,
2013-03-19 05:55:00,36.8,20.8,29.92,ESE,109,7.0,7.0,52,0.00,,,0.00,Wunderground v.1.13,2013-03-19 09:55:00,
2013-03-19 06:00:00,36.5,20.5,29.93,ENE,59,6.0,6.0,52,0.00,,,0.00,Wunderground v.1.13,2013-03-19 10:00:00,
2013-03-19 06:05:00,36.0,20.1,29.93,NE,56,6.0,6.0,52,0.00,,,0.00,Wunderground v.1.13,2013-03-19 10:05:00,
2013-03-19 06:10:00,35.8,20.3,29.93,SSE,147,6.0,6.0,53,0.00,,,0.00,Wunderground v.1.13,2013-03-19 10:10:00,
2013-03-19 06:15:00,35.5,20.5,29.94,SE,134,5.0,5.0,54,0.00,,,0.00,Wunderground v.1.13,2013-03-19 10:15:00,
2013-03-19 06:20:00,35.3,20.7,29.94,ESE,119,6.0,6.0,55,0.00,,,0.00,Wunderground v.1.13,2013-03-19 10:20:00,
2013-03-19 06:25:00,35.2,20.6,29.94,ESE,110,5.0,19.0,55,0.00,,,0.00,Wunderground v.1.13,2013-03-19 10:25:00,
2013-03-19 06:30:00,35.0,20.4,29.95,ESE,117,4.0,4.0,55,0.00,,,0.00,Wunderground v.1.13,2013-03-19 10:30:00,
2013-03-19 06:35:00,34.9,20.4,29.95,South,172,4.0,4.0,55,0.00,,,0.00,Wunderground v.1.13,2013-03-19 10:35:00,
2013-03-19 06:45:00,34.6,20.9,29.96,SSW,206,2.0,19.0,57,0.00,,,0.00,Wunderground v.1.13,2013-03-19 10:45:00,
2013-03-19 06:50:00,34.3,20.2,29.96,SSE,161,2.0,2.0,56,0.00,,,0.00,Wunderground v.1.13,2013-03-19 10:50:00,
2013-03-19 06:55:00,34.1,20.0,29.96,South,186,2.0,19.0,56,0.00,,,0.00,Wunderground v.1.13,2013-03-19 10:55:00,
2013-03-19 07:00:00,33.8,20.2,29.96,SE,136,2.0,19.0,57,0.00,,,0.00,Wunderground v.1.13,2013-03-19 11:00:00,
2013-03-19 07:05:00,33.7,20.1,29.96,SSE,154,2.0,19.0,57,0.00,,,0.01,Wunderground v.1.13,2013-03-19 11:05:00,
2013-03-19 07:10:00,33.4,19.8,29.96,SE,141,3.0,3.0,57,0.00,,,0.01,Wunderground v.1.13,2013-03-19 11:10:00,
2013-03-19 07:20:00,33.1,20.7,29.96,ENE,68,3.0,19.0,60,0.00,,,0.01,Wunderground v.1.13,2013-03-19 11:20:00,
2013-03-19 07:25:00,32.9,20.5,29.96,SE,133,3.0,19.0,60,0.00,,,0.01,Wunderground v.1.13,2013-03-19 11:25:00,
2013-03-19 07:30:00,32.7,19.5,29.97,SE,136,3.0,3.0,58,0.00,,,0.01,Wunderground v.1.13,2013-03-19 11:30:00,
2013-03-19 07:35:00,32.5,19.3,29.97,ESE,123,4.0,19.0,58,0.00,,,0.01,Wunderground v.1.13,2013-03-19 11:35:00,
2013-03-19 07:40:00,32.4,19.3,29.97,SE,138,5.0,5.0,58,0.00,,,0.01,Wunderground v.1.13,2013-03-19 11:40:00,
2013-03-19 07:50:00,32.1,20.2,29.98,SE,126,4.0,19.0,61,0.00,,,0.01,Wunderground v.1.13,2013-03-19 11:50:00,
2013-03-19 07:55:00,31.9,19.6,29.98,SE,131,5.0,19.0,60,0.00,,,0.01,Wunderground v.1.13,2013-03-19 11:55:00,
2013-03-19 08:00:00,31.8,19.1,29.98,SE,124,6.0,19.0,59,0.00,,,0.01,Wunderground v.1.13,2013-03-19 12:00:00,
2013-03-19 08:05:00,31.5,18.8,29.98,SSE,167,6.0,19.0,59,0.00,,,0.01,Wunderground v.1.13,2013-03-19 12:05:00,
2013-03-19 08:10:00,31.2,18.5,29.98,East,97,7.0,19.0,59,0.00,,,0.01,Wunderground v.1.13,2013-03-19 12:10:00,
2013-03-19 08:15:00,31.0,18.3,29.98,SE,144,6.0,6.0,59,0.00,,,0.01,Wunderground v.1.13,2013-03-19 12:15:00,
2013-03-19 08:25:00,30.9,18.6,29.98,SSE,150,5.0,19.0,60,0.00,,,0.01,Wunderground v.1.13,2013-03-19 12:25:00,
2013-03-19 08:30:00,30.9,18.2,29.99,SE,133,5.0,5.0,59,0.00,,,0.01,Wunderground v.1.13,2013-03-19 12:30:00,
2013-03-19 08:35:00,30.9,18.6,29.99,East,85,6.0,19.0,60,0.00,,,0.01,Wunderground v.1.13,2013-03-19 12:35:00,
2013-03-19 08:40:00,30.9,18.6,29.99,SE,133,6.0,19.0,60,0.00,,,0.01,Wunderground v.1.13,2013-03-19 12:40:00,
2013-03-19 08:45:00,31.0,19.5,29.99,SE,133,5.0,5.0,62,0.00,,,0.01,Wunderground v.1.13,2013-03-19 12:45:00,
2013-03-19 08:50:00,31.2,19.3,29.99,ESE,123,3.0,19.0,61,0.00,,,0.01,Wunderground v.1.13,2013-03-19 12:50:00,
2013-03-19 08:55:00,31.3,18.2,29.99,East,93,3.0,19.0,58,0.00,,,0.01,Wunderground v.1.13,2013-03-19 12:55:00,
2013-03-19 09:05:00,31.5,18.4,30.00,ESE,119,3.0,3.0,58,0.00,,,0.01,Wunderground v.1.13,2013-03-19 13:05:00,
2013-03-19 09:10:00,31.8,18.7,30.00,SSE,162,2.0,2.0,58,0.00,,,0.01,Wunderground v.1.13,2013-03-19 13:10:00,
2013-03-19 09:15:00,31.9,18.4,30.01,ESE,123,2.0,2.0,57,0.00,,,0.01,Wunderground v.1.13,2013-03-19 13:15:00,
2013-03-19 09:20:00,32.1,18.2,30.01,SSE,150,2.0,2.0,56,0.00,,,0.01,Wunderground v.1.13,2013-03-19 13:20:00,
2013-03-19 09:25:00,32.1,17.7,30.01,ESE,121,3.0,3.0,55,0.00,,,0.01,Wunderground v.1.13,2013-03-19 13:25:00,
2013-03-19 09:30:00,32.1,17.7,30.01,East,100,3.0,19.0,55,0.00,,,0.01,Wunderground v.1.13,2013-03-19 13:30:00,
2013-03-19 09:35:00,31.9,17.1,30.01,East,100,5.0,19.0,54,0.00,,,0.01,Wunderground v.1.13,2013-03-19 13:35:00,
2013-03-19 09:40:00,32.2,18.2,30.01,SSE,161,5.0,5.0,56,0.00,,,0.01,Wunderground v.1.13,2013-03-19 13:40:00,
2013-03-19 09:50:00,32.8,19.2,30.00,South,175,2.0,19.0,57,0.00,,,0.01,Wunderground v.1.13,2013-03-19 13:50:00,
2013-03-19 09:55:00,33.1,19.1,30.00,East,99,2.0,19.0,56,0.00,,,0.01,Wunderground v.1.13,2013-03-19 13:55:00,
2013-03-19 10:00:00,33.1,17.8,30.00,South,188,3.0,19.0,53,0.00,,,0.01,Wunderground v.1.13,2013-03-19 14:00:00,
2013-03-19 10:05:00,33.2,17.5,30.00,SSE,148,4.0,19.0,52,0.00,,,0.01,Wunderground v.1.13,2013-03-19 14:05:00,
2013-03-19 10:10:00,33.2,17.0,30.00,SE,143,4.0,4.0,51,0.00,,,0.01,Wunderground v.1.13,2013-03-19 14:10:00,
2013-03-19 10:15:00,33.5,17.7,30.01,SE,131,5.0,19.0,52,0.00,,,0.01,Wunderground v.1.13,2013-03-19 14:15:00,
2013-03-19 10:20:00,33.5,17.7,30.01,SE,134,5.0,19.0,52,0.00,,,0.01,Wunderground v.1.13,2013-03-19 14:20:00,
2013-03-19 10:30:00,33.8,18.5,30.01,ESE,106,5.0,19.0,53,0.00,,,0.01,Wunderground v.1.13,2013-03-19 14:30:00,
2013-03-19 10:35:00,34.3,18.0,30.01,SSE,155,4.0,4.0,51,0.00,,,0.01,Wunderground v.1.13,2013-03-19 14:35:00,
2013-03-19 10:40:00,34.6,18.8,30.01,SE,124,4.0,4.0,52,0.00,,,0.01,Wunderground v.1.13,2013-03-19 14:40:00,
2013-03-19 10:45:00,35.2,19.3,30.01,SSE,157,3.0,3.0,52,0.00,,,0.01,Wunderground v.1.13,2013-03-19 14:45:00,
2013-03-19 10:50:00,35.3,17.5,30.01,SSE,158,4.0,4.0,48,0.00,,,0.01,Wunderground v.1.13,2013-03-19 14:50:00,
2013-03-19 10:55:00,35.2,18.4,30.01,SSW,205,5.0,5.0,50,0.00,,,0.01,Wunderground v.1.13,2013-03-19 14:55:00,
2013-03-19 11:05:00,35.9,19.5,30.02,South,189,3.0,3.0,51,0.00,,,0.01,Wunderground v.1.13,2013-03-19 15:05:00,
2013-03-19 11:10:00,36.3,19.9,30.02,SSE,157,2.0,2.0,51,0.00,,,0.01,Wunderground v.1.13,2013-03-19 15:10:00,
2013-03-19 11:15:00,36.3,18.0,30.01,SE,140,4.0,19.0,47,0.00,,,0.01,Wunderground v.1.13,2013-03-19 15:15:00,
2013-03-19 11:20:00,36.3,18.9,30.01,SSE,152,5.0,5.0,49,0.00,,,0.01,Wunderground v.1.13,2013-03-19 15:20:00,
2013-03-19 11:25:00,36.6,19.2,30.01,ESE,112,4.0,19.0,49,0.00,,,0.01,Wunderground v.1.13,2013-03-19 15:25:00,
2013-03-19 11:35:00,36.9,17.5,30.02,SE,131,5.0,19.0,45,0.00,,,0.01,Wunderground v.1.13,2013-03-19 15:35:00,
2013-03-19 11:40:00,37.2,19.3,30.02,SE,124,6.0,6.0,48,0.00,,,0.01,Wunderground v.1.13,2013-03-19 15:40:00,
2013-03-19 11:45:00,37.3,18.9,30.02,ESE,119,6.0,19.0,47,0.00,,,0.01,Wunderground v.1.13,2013-03-19 15:45:00,
2013-03-19 11:50:00,37.6,18.2,30.02,SSE,147,6.0,19.0,45,0.00,,,0.01,Wunderground v.1.13,2013-03-19 15:50:00,
2013-03-19 11:55:00,37.8,18.3,30.02,SSE,155,5.0,5.0,45,0.00,,,0.01,Wunderground v.1.13,2013-03-19 15:55:00,
2013-03-19 12:00:00,38.3,19.8,30.02,SE,143,4.0,19.0,47,0.00,,,0.01,Wunderground v.1.13,2013-03-19 16:00:00,
2013-03-19 12:10:00,38.9,18.8,30.02,SE,144,4.0,19.0,44,0.00,,,0.01,Wunderground v.1.13,2013-03-19 16:10:00,
2013-03-19 12:15:00,38.9,17.2,30.01,SE,127,6.0,6.0,41,0.00,,,0.01,Wunderground v.1.13,2013-03-19 16:15:00,
2013-03-19 12:20:00,38.9,17.7,30.01,SSW,203,6.0,6.0,42,0.00,,,0.01,Wunderground v.1.13,2013-03-19 16:20:00,
2013-03-19 12:25:00,38.9,17.7,30.01,ESE,117,6.0,6.0,42,0.00,,,0.01,Wunderground v.1.13,2013-03-19 16:25:00,
2013-03-19 12:30:00,39.1,17.4,30.02,East,95,7.0,7.0,41,0.00,,,0.01,Wunderground v.1.13,2013-03-19 16:30:00,
2013-03-19 12:40:00,39.5,16.6,30.02,SSE,147,7.0,19.0,39,0.00,,,0.01,Wunderground v.1.13,2013-03-19 16:40:00,
2013-03-19 12:45:00,39.5,16.0,30.02,SE,128,8.0,8.0,38,0.00,,,0.01,Wunderground v.1.13,2013-03-19 16:45:00,
2013-03-19 12:50:00,39.9,16.3,30.02,SE,134,8.0,8.0,38,0.00,,,0.01,Wunderground v.1.13,2013-03-19 16:50:00,
2013-03-19 12:55:00,40.2,14.7,30.02,ESE,116,7.0,19.0,35,0.00,,,0.01,Wunderground v.1.13,2013-03-19 16:55:00,
2013-03-19 13:00:00,40.3,14.8,30.01,SE,145,8.0,8.0,35,0.00,,,0.01,Wunderground v.1.13,2013-03-19 17:00:00,
2013-03-19 13:05:00,40.9,17.8,30.01,SE,137,7.0,7.0,39,0.00,,,0.01,Wunderground v.1.13,2013-03-19 17:05:00,
2013-03-19 13:15:00,41.6,15.3,30.02,ESE,116,6.0,19.0,34,0.00,,,0.01,Wunderground v.1.13,2013-03-19 17:15:00,
2013-03-19 13:20:00,41.6,14.6,30.02,SE,133,8.0,8.0,33,0.00,,,0.01,Wunderground v.1.13,2013-03-19 17:20:00,
2013-03-19 13:25:00,42.2,15.8,30.02,SE,130,7.0,7.0,34,0.00,,,0.01,Wunderground v.1.13,2013-03-19 17:25:00,
2013-03-19 13:30:00,42.9,15.7,30.02,East,96,4.0,19.0,33,0.00,,,0.01,Wunderground v.1.13,2013-03-19 17:30:00,
2013-03-19 13:35:00,42.6,14.8,30.02,SE,131,6.0,19.0,32,0.00,,,0.01,Wunderground v.1.13,2013-03-19 17:35:00,
2013-03-19 13:45:00,42.9,15.0,30.03,ESE,110,7.0,7.0,32,0.00,,,0.01,Wunderground v.1.13,2013-03-19 17:45:00,
2013-03-19 13:50:00,42.8,14.2,30.03,SSE,150,8.0,19.0,31,0.00,,,0.01,Wunderground v.1.13,2013-03-19 17:50:00,
2013-03-19 13:55:00,43.1,17.3,30.03,ESE,106,6.0,6.0,35,0.00,,,0.01,Wunderground v.1.13,2013-03-19 17:55:00,
2013-03-19 14:00:00,42.9,12.8,30.03,ESE,123,8.0,19.0,29,0.00,,,0.01,Wunderground v.1.13,2013-03-19 18:00:00,
2013-03-19 14:05:00,42.9,17.1,30.03,SE,137,9.0,19.0,35,0.00,,,0.01,Wunderground v.1.13,2013-03-19 18:05:00,
2013-03-19 14:10:00,42.8,12.7,30.03,ESE,120,9.0,9.0,29,0.00,,,0.01,Wunderground v.1.13,2013-03-19 18:10:00,
2013-03-19 14:20:00,43.8,15.8,30.03,SSW,209,6.0,6.0,32,0.00,,,0.01,Wunderground v.1.13,2013-03-19 18:20:00,
2013-03-19 14:25:00,44.2,14.7,30.03,South,169,5.0,5.0,30,0.00,,,0.01,Wunderground v.1.13,2013-03-19 18:25:00,
2013-03-19 14:30:00,43.9,15.9,30.04,East,99,7.0,19.0,32,0.00,,,0.01,Wunderground v.1.13,2013-03-19 18:30:00,
2013-03-19 14:35:00,43.5,13.3,30.04,SE,126,10.0,10.0,29,0.00,,,0.01,Wunderground v.1.13,2013-03-19 18:35:00,
2013-03-19 14:40:00,43.5,13.3,30.04,ESE,121,11.0,11.0,29,0.00,,,0.01,Wunderground v.1.13,2013-03-19 18:40:00,
2013-03-19 14:45:00,43.9,12.8,30.04,SE,126,9.0,19.0,28,0.00,,,0.01,Wunderground v.1.13,2013-03-19 18:45:00,
2013-03-19 14:50:00,43.9,13.6,30.04,SSE,168,8.0,8.0,29,0.00,,,0.01,Wunderground v.1.13,2013-03-19 18:50:00,
2013-03-19 14:55:00,44.1,13.0,30.04,SE,138,8.0,19.0,28,0.00,,,0.01,Wunderground v.1.13,2013-03-19 18:55:00,
2013-03-19 15:00:00,44.3,14.8,30.04,SSE,154,7.0,7.0,30,0.00,,,0.01,Wunderground v.1.13,2013-03-19 19:00:00,
2013-03-19 15:05:00,45.1,13.1,30.04,SE,128,5.0,19.0,27,0.00,,,0.01,Wunderground v.1.13,2013-03-19 19:05:00,
2013-03-19 15:10:00,45.2,14.0,30.04,SSE,151,5.0,19.0,28,0.00,,,0.01,Wunderground v.1.13,2013-03-19 19:10:00,
2013-03-19 15:15:00,45.4,16.5,30.04,SSE,154,7.0,7.0,31,0.00,,,0.01,Wunderground v.1.13,2013-03-19 19:15:00,
2013-03-19 15:20:00,45.5,14.2,30.04,SSE,148,7.0,7.0,28,0.00,,,0.01,Wunderground v.1.13,2013-03-19 19:20:00,
2013-03-19 15:25:00,46.2,15.6,30.04,South,172,6.0,19.0,29,0.00,,,0.01,Wunderground v.1.13,2013-03-19 19:25:00,
2013-03-19 15:30:00,46.7,14.4,30.04,ESE,123,5.0,19.0,27,0.00,,,0.01,Wunderground v.1.13,2013-03-19 19:30:00,
2013-03-19 15:35:00,46.5,12.5,30.04,SE,134,6.0,6.0,25,0.00,,,0.01,Wunderground v.1.13,2013-03-19 19:35:00,
2013-03-19 15:40:00,46.8,14.5,30.04,SSE,167,5.0,19.0,27,0.00,,,0.01,Wunderground v.1.13,2013-03-19 19:40:00,
2013-03-19 15:45:00,47.0,12.9,30.04,South,178,5.0,19.0,25,0.00,,,0.01,Wunderground v.1.13,2013-03-19 19:45:00,
2013-03-19 15:55:00,47.6,16.1,30.04,ESE,102,5.0,19.0,28,0.00,,,0.01,Wunderground v.1.13,2013-03-19 19:55:00,
2013-03-19 16:05:00,47.3,13.2,30.05,ESE,120,6.0,6.0,25,0.00,,,0.01,Wunderground v.1.13,2013-03-19 20:05:00,
2013-03-19 16:10:00,47.6,16.1,30.05,SE,133,4.0,4.0,28,0.00,,,0.01,Wunderground v.1.13,2013-03-19 20:10:00,
2013-03-19 16:15:00,47.9,13.7,30.05,SSE,160,4.0,19.0,25,0.00,,,0.01,Wunderground v.1.13,2013-03-19 20:15:00,
2013-03-19 16:20:00,48.0,12.9,30.05,SSE,168,5.0,19.0,24,0.00,,,0.01,Wunderground v.1.13,2013-03-19 20:20:00,
2013-03-19 16:25:00,47.6,12.5,30.05,SSE,158,6.0,19.0,24,0.00,,,0.01,Wunderground v.1.13,2013-03-19 20:25:00,
2013-03-19 16:35:00,47.7,12.6,30.06,SE,133,4.0,4.0,24,0.00,,,0.01,Wunderground v.1.13,2013-03-19 20:35:00,
2013-03-19 16:40:00,48.0,14.7,30.06,ENE,59,4.0,19.0,26,0.00,,,0.01,Wunderground v.1.13,2013-03-19 20:40:00,
2013-03-19 16:45:00,48.3,14.1,30.06,ENE,76,4.0,4.0,25,0.00,,,0.01,Wunderground v.1.13,2013-03-19 20:45:00,
2013-03-19 16:50:00,48.3,14.1,30.06,SSE,147,4.0,4.0,25,0.00,,,0.01,Wunderground v.1.13,2013-03-19 20:50:00,
2013-03-19 16:55:00,48.2,14.9,30.06,SE,138,5.0,19.0,26,0.00,,,0.01,Wunderground v.1.13,2013-03-19 20:55:00,
2013-03-19 17:00:00,47.6,16.1,30.07,ESE,114,5.0,5.0,28,0.00,,,0.01,Wunderground v.1.13,2013-03-19 21:00:00,
2013-03-19 17:05:00,47.4,11.4,30.07,SSE,167,5.0,5.0,23,0.00,,,0.01,Wunderground v.1.13,2013-03-19 21:05:00,
2013-03-19 17:10:00,47.6,11.6,30.07,SSE,150,5.0,5.0,23,0.00,,,0.01,Wunderground v.1.13,2013-03-19 21:10:00,
2013-03-19 17:15:00,47.9,12.8,30.07,ESE,121,3.0,19.0,24,0.00,,,0.01,Wunderground v.1.13,2013-03-19 21:15:00,
2013-03-19 17:20:00,48.0,13.8,30.07,ESE,114,3.0,19.0,25,0.00,,,0.01,Wunderground v.1.13,2013-03-19 21:20:00,
2013-03-19 17:30:00,47.4,9.4,30.07,SE,144,5.0,5.0,21,0.00,,,0.01,Wunderground v.1.13,2013-03-19 21:30:00,
2013-03-19 17:35:00,47.3,11.3,30.07,SE,128,5.0,19.0,23,0.00,,,0.01,Wunderground v.1.13,2013-03-19 21:35:00,
2013-03-19 17:40:00,47.1,10.1,30.07,SSE,167,4.0,19.0,22,0.00,,,0.01,Wunderground v.1.13,2013-03-19 21:40:00,
2013-03-19 17:45:00,47.1,11.1,30.06,ESE,112,4.0,19.0,23,0.00,,,0.01,Wunderground v.1.13,2013-03-19 21:45:00,
2013-03-19 17:50:00,47.3,12.3,30.06,SE,140,4.0,4.0,24,0.00,,,0.01,Wunderground v.1.13,2013-03-19 21:50:00,
2013-03-19 17:55:00,47.3,13.2,30.06,ESE,119,4.0,4.0,25,0.00,,,0.01,Wunderground v.1.13,2013-03-19 21:55:00,
2013-03-19 18:05:00,47.3,13.2,30.07,SSE,151,3.0,3.0,25,0.00,,,0.01,Wunderground v.1.13,2013-03-19 22:05:00,
2013-03-19 18:10:00,47.4,12.4,30.07,North,0,3.0,19.0,24,0.00,,,0.01,Wunderground v.1.13,2013-03-19 22:10:00,
2013-03-19 18:15:00,47.4,13.3,30.07,SE,128,3.0,19.0,25,0.00,,,0.01,Wunderground v.1.13,2013-03-19 22:15:00,
2013-03-19 18:20:00,47.4,11.4,30.07,ESE,123,3.0,3.0,23,0.00,,,0.01,Wunderground v.1.13,2013-03-19 22:20:00,
2013-03-19 18:25:00,47.1,13.0,30.07,SSE,151,4.0,4.0,25,0.00,,,0.01,Wunderground v.1.13,2013-03-19 22:25:00,
2013-03-19 18:35:00,46.4,10.5,30.07,SSE,152,4.0,4.0,23,0.00,,,0.01,Wunderground v.1.13,2013-03-19 22:35:00,
2013-03-19 18:40:00,46.1,9.3,30.07,SE,143,4.0,4.0,22,0.00,,,0.01,Wunderground v.1.13,2013-03-19 22:40:00,
2013-03-19 18:45:00,46.0,12.1,30.09,SE,141,3.0,3.0,25,0.00,,,0.01,Wunderground v.1.13,2013-03-19 22:45:00,
2013-03-19 18:50:00,45.8,12.8,30.09,East,100,2.0,2.0,26,0.00,,,0.01,Wunderground v.1.13,2013-03-19 22:50:00,
2013-03-19 18:55:00,45.7,11.8,30.09,SE,143,3.0,3.0,25,0.00,,,0.01,Wunderground v.1.13,2013-03-19 22:55:00,
2013-03-19 19:00:00,45.5,10.7,30.09,SE,145,2.0,2.0,24,0.00,,,0.01,Wunderground v.1.13,2013-03-19 23:00:00,
2013-03-19 19:10:00,45.1,13.1,30.09,SW,229,2.0,19.0,27,0.00,,,0.01,Wunderground v.1.13,2013-03-19 23:10:00,
2013-03-19 19:15:00,44.6,10.9,30.10,SE,141,3.0,19.0,25,0.00,,,0.01,Wunderground v.1.13,2013-03-19 23:15:00,
2013-03-19 19:20:00,44.3,11.5,30.10,ESE,114,3.0,19.0,26,0.00,,,0.01,Wunderground v.1.13,2013-03-19 23:20:00,
2013-03-19 19:25:00,44.1,12.2,30.10,ESE,121,2.0,2.0,27,0.00,,,0.01,Wunderground v.1.13,2013-03-19 23:25:00,
2013-03-19 19:30:00,43.6,11.8,30.10,South,186,3.0,3.0,27,0.00,,,0.01,Wunderground v.1.13,2013-03-19 23:30:00,
2013-03-19 19:40:00,43.1,12.2,30.10,SE,137,2.0,19.0,28,0.00,,,0.01,Wunderground v.1.13,2013-03-19 23:40:00,
2013-03-19 19:45:00,42.9,12.0,30.10,SE,130,2.0,2.0,28,0.00,,,0.01,Wunderground v.1.13,2013-03-19 23:45:00,
2013-03-19 19:50:00,42.8,11.1,30.10,ENE,69,2.0,2.0,27,0.00,,,0.01,Wunderground v.1.13,2013-03-19 23:50:00,
2013-03-19 19:55:00,42.5,13.9,30.10,ESE,120,2.0,19.0,31,0.00,,,0.01,Wunderground v.1.13,2013-03-19 23:55:00,
2013-03-19 20:00:00,42.3,11.5,30.11,South,182,2.0,2.0,28,0.00,,,0.01,Wunderground v.1.13,2013-03-20 00:00:00,
2013-03-19 20:05:00,42.1,11.3,30.11,SE,128,2.0,19.0,28,0.00,,,0.01,Wunderground v.1.13,2013-03-20 00:05:00,
2013-03-19 20:15:00,41.8,11.8,30.11,South,181,2.0,19.0,29,0.00,,,0.01,Wunderground v.1.13,2013-03-20 00:15:00,
2013-03-19 20:20:00,41.6,11.6,30.11,SSW,196,2.0,19.0,29,0.00,,,0.01,Wunderground v.1.13,2013-03-20 00:20:00,
2013-03-19 20:25:00,41.5,12.3,30.11,South,179,2.0,19.0,30,0.00,,,0.01,Wunderground v.1.13,2013-03-20 00:25:00,
2013-03-19 20:30:00,41.3,14.3,30.11,SE,137,1.0,19.0,33,0.00,,,0.01,Wunderground v.1.13,2013-03-20 00:30:00,
2013-03-19 20:35:00,41.2,11.3,30.11,South,169,1.0,1.0,29,0.00,,,0.01,Wunderground v.1.13,2013-03-20 00:35:00,
2013-03-19 20:45:00,41.1,12.7,30.12,SE,144,2.0,2.0,31,0.00,,,0.01,Wunderground v.1.13,2013-03-20 00:45:00,
2013-03-19 20:50:00,40.9,13.3,30.12,SW,216,1.0,19.0,32,0.00,,,0.01,Wunderground v.1.13,2013-03-20 00:50:00,
2013-03-19 20:55:00,40.8,13.2,30.12,SSE,154,1.0,1.0,32,0.00,,,0.01,Wunderground v.1.13,2013-03-20 00:55:00,
2013-03-19 21:00:00,40.8,13.2,30.12,SSE,154,1.0,1.0,32,0.00,,,0.01,Wunderground v.1.13,2013-03-20 01:00:00,
2013-03-19 21:05:00,40.6,13.0,30.12,SSE,150,1.0,1.0,32,0.00,,,0.01,Wunderground v.1.13,2013-03-20 01:05:00,
2013-03-19 21:10:00,40.6,14.4,30.12,South,179,1.0,1.0,34,0.00,,,0.01,Wunderground v.1.13,2013-03-20 01:10:00,
2013-03-19 21:15:00,40.5,14.3,30.12,SSE,155,0.0,19.0,34,0.00,,,0.01,Wunderground v.1.13,2013-03-20 01:15:00,
2013-03-19 21:20:00,40.3,12.0,30.12,SSE,148,1.0,1.0,31,0.00,,,0.01,Wunderground v.1.13,2013-03-20 01:20:00,
2013-03-19 21:25:00,40.3,12.7,30.12,SSE,147,1.0,19.0,32,0.00,,,0.01,Wunderground v.1.13,2013-03-20 01:25:00,
2013-03-19 21:30:00,40.3,12.7,30.12,SE,140,1.0,1.0,32,0.00,,,0.01,Wunderground v.1.13,2013-03-20 01:30:00,
2013-03-19 21:35:00,40.3,14.1,30.12,SSE,157,1.0,1.0,34,0.00,,,0.01,Wunderground v.1.13,2013-03-20 01:35:00,
2013-03-19 21:40:00,40.2,14.7,30.12,ESE,121,0.0,19.0,35,0.00,,,0.01,Wunderground v.1.13,2013-03-20 01:40:00,
2013-03-19 21:50:00,40.2,13.3,30.13,SE,134,1.0,1.0,33,0.00,,,0.01,Wunderground v.1.13,2013-03-20 01:50:00,
2013-03-19 21:55:00,40.2,14.7,30.13,ESE,123,1.0,19.0,35,0.00,,,0.01,Wunderground v.1.13,2013-03-20 01:55:00,
2013-03-19 22:05:00,40.1,13.3,30.13,SE,124,2.0,2.0,33,0.00,,,0.01,Wunderground v.1.13,2013-03-20 02:05:00,
2013-03-19 22:10:00,39.9,12.4,30.13,ESE,109,2.0,2.0,32,0.00,,,0.01,Wunderground v.1.13,2013-03-20 02:10:00,
2013-03-19 22:15:00,39.9,13.8,30.12,SSE,155,2.0,19.0,34,0.00,,,0.01,Wunderground v.1.13,2013-03-20 02:15:00,
2013-03-19 22:25:00,39.6,13.5,30.12,SE,128,2.0,2.0,34,0.00,,,0.01,Wunderground v.1.13,2013-03-20 02:25:00,